Wetterdaten: Woche 21.10.13 - 27.10.13 (KW43)
Datum Zeit Temp. A. Feuchte A. Luftdruck Regen Wind Richtung Taupunkt Windchill Windben
21.10.2013 00:00 14,7 C 90 % 1011,8 hPa 0,6 l/m 4,6 km/h (1 Bft) S-SW 13,1 C 14,7 C 10,2 km/h (2 Bft)
21.10.2013 01:00 14,3 C 91 % 1011,5 hPa 0,6 l/m 4,0 km/h (1 Bft) S-SW 12,9 C 14,3 C 9,5 km/h (2 Bft)
21.10.2013 02:00 14,3 C 90 % 1011,0 hPa 0,0 l/m 5,7 km/h (2 Bft) S-SW 12,7 C 14,2 C 11,8 km/h (2 Bft)
21.10.2013 03:00 13,8 C 90 % 1010,9 hPa 0,0 l/m 4,6 km/h (1 Bft) S-SW 12,1 C 13,8 C 10,2 km/h (2 Bft)
21.10.2013 04:00 13,8 C 87 % 1010,9 hPa 0,0 l/m 5,3 km/h (1 Bft) S-SW 11,7 C 13,8 C 13,0 km/h (3 Bft)
21.10.2013 05:00 13,4 C 87 % 1011,5 hPa 0,0 l/m 4,5 km/h (1 Bft) SW 11,3 C 13,4 C 12,5 km/h (2 Bft)
21.10.2013 06:00 13,0 C 88 % 1011,9 hPa 0,0 l/m 2,9 km/h (1 Bft) SW 11,0 C 13,0 C 7,8 km/h (2 Bft)
21.10.2013 07:00 12,6 C 89 % 1012,3 hPa 0,0 l/m 3,2 km/h (1 Bft) S 10,8 C 12,6 C 8,3 km/h (2 Bft)
21.10.2013 08:00 12,1 C 90 % 1012,8 hPa 0,0 l/m 2,4 km/h (1 Bft) S-SO 10,5 C 12,1 C 5,5 km/h (2 Bft)
21.10.2013 09:00 12,4 C 90 % 1013,3 hPa 0,0 l/m 3,2 km/h (1 Bft) S-SW 10,7 C 12,4 C 7,5 km/h (2 Bft)
21.10.2013 10:00 14,2 C 86 % 1013,5 hPa 0,0 l/m 5,4 km/h (2 Bft) S-SW 11,9 C 14,2 C 13,7 km/h (3 Bft)
21.10.2013 11:00 15,2 C 82 % 1013,9 hPa 0,0 l/m 6,4 km/h (2 Bft) S-SW 12,2 C 15,0 C 17,0 km/h (3 Bft)
21.10.2013 12:00 15,9 C 81 % 1014,2 hPa 0,0 l/m 6,8 km/h (2 Bft) S-SW 12,6 C 15,6 C 17,0 km/h (3 Bft)
21.10.2013 13:00 16,6 C 78 % 1014,2 hPa 0,0 l/m 6,3 km/h (2 Bft) S-SW 12,8 C 16,4 C 14,4 km/h (3 Bft)
21.10.2013 14:00 17,1 C 76 % 1014,1 hPa 0,0 l/m 5,7 km/h (2 Bft) SW 12,7 C 17,0 C 13,8 km/h (3 Bft)
21.10.2013 15:00 17,0 C 78 % 1014,2 hPa 0,0 l/m 4,9 km/h (1 Bft) SW 13,0 C 17,0 C 10,5 km/h (2 Bft)
21.10.2013 16:00 16,4 C 81 % 1014,5 hPa 0,0 l/m 3,0 km/h (1 Bft) SW 13,0 C 16,4 C 7,8 km/h (2 Bft)
21.10.2013 17:00 16,0 C 83 % 1014,3 hPa 0,0 l/m 1,8 km/h (1 Bft) S-SO 13,1 C 16,0 C 4,4 km/h (1 Bft)
21.10.2013 18:00 14,6 C 88 % 1014,3 hPa 0,0 l/m 0,0 km/h (0 Bft) N 12,7 C 14,6 C 0,1 km/h (0 Bft)
21.10.2013 19:00 13,4 C 91 % 1014,5 hPa 0,0 l/m 0,0 km/h (0 Bft) N 11,9 C 13,4 C 0,3 km/h (0 Bft)
21.10.2013 20:00 12,4 C 93 % 1014,4 hPa 0,0 l/m 0,0 km/h (0 Bft) N 11,3 C 12,4 C 0,4 km/h (0 Bft)
21.10.2013 21:00 13,1 C 93 % 1014,4 hPa 0,0 l/m 0,3 km/h (0 Bft) S-SO 11,9 C 13,1 C 1,5 km/h (1 Bft)
21.10.2013 22:00 13,5 C 91 % 1014,4 hPa 0,0 l/m 0,4 km/h (0 Bft) O-SO 12,0 C 13,5 C 2,3 km/h (1 Bft)
21.10.2013 23:00 13,3 C 91 % 1014,4 hPa 0,0 l/m 0,0 km/h (0 Bft) N 11,8 C 13,3 C 0,3 km/h (0 Bft)
22.10.2013 00:00 12,8 C 92 % 1014,3 hPa 0,0 l/m 0,0 km/h (0 Bft) N 11,4 C 12,8 C 0,0 km/h (0 Bft)
22.10.2013 01:00 12,2 C 93 % 1014,0 hPa 0,0 l/m 0,0 km/h (0 Bft) N 11,0 C 12,2 C 0,0 km/h (0 Bft)
22.10.2013 02:00 12,2 C 93 % 1013,8 hPa 0,0 l/m 0,2 km/h (0 Bft) N 11,1 C 12,2 C 1,2 km/h (1 Bft)
22.10.2013 03:00 11,1 C 93 % 1013,2 hPa 0,0 l/m 0,0 km/h (0 Bft) N 10,0 C 11,1 C 0,3 km/h (0 Bft)
22.10.2013 04:00 10,2 C 94 % 1012,9 hPa 0,0 l/m 0,1 km/h (0 Bft) N 9,3 C 10,2 C 0,8 km/h (0 Bft)
22.10.2013 05:00 9,8 C 95 % 1012,7 hPa 0,0 l/m 0,0 km/h (0 Bft) N 9,0 C 9,8 C 0,0 km/h (0 Bft)
22.10.2013 06:00 9,9 C 95 % 1012,4 hPa 0,0 l/m 0,0 km/h (0 Bft) N 9,2 C 9,9 C 0,0 km/h (0 Bft)
22.10.2013 07:00 10,9 C 95 % 1012,0 hPa 0,0 l/m 0,1 km/h (0 Bft) N 10,1 C 10,9 C 0,8 km/h (0 Bft)
22.10.2013 08:00 11,3 C 94 % 1011,9 hPa 0,0 l/m 0,0 km/h (0 Bft) N 10,4 C 11,3 C 0,0 km/h (0 Bft)
22.10.2013 09:00 12,5 C 91 % 1011,6 hPa 0,0 l/m 0,1 km/h (0 Bft) N 11,1 C 12,5 C 0,7 km/h (0 Bft)
22.10.2013 10:00 14,1 C 88 % 1011,1 hPa 0,0 l/m 0,9 km/h (0 Bft) SO 12,1 C 14,1 C 2,7 km/h (1 Bft)
22.10.2013 11:00 16,3 C 83 % 1010,9 hPa 0,0 l/m 3,3 km/h (1 Bft) S 13,3 C 16,3 C 8,2 km/h (2 Bft)
22.10.2013 12:00 17,8 C 80 % 1010,4 hPa 0,0 l/m 4,3 km/h (1 Bft) S-SO 14,4 C 17,8 C 10,1 km/h (2 Bft)
22.10.2013 13:00 20,0 C 75 % 1009,4 hPa 0,0 l/m 5,4 km/h (1 Bft) S 15,5 C 19,9 C 11,0 km/h (2 Bft)
22.10.2013 14:00 21,0 C 72 % 1008,6 hPa 0,0 l/m 5,2 km/h (1 Bft) O-SO 15,8 C 21,0 C 12,8 km/h (3 Bft)
22.10.2013 15:00 21,5 C 73 % 1008,2 hPa 0,0 l/m 4,1 km/h (1 Bft) S 16,4 C 21,5 C 10,3 km/h (2 Bft)
22.10.2013 16:00 21,7 C 68 % 1007,7 hPa 0,0 l/m 5,0 km/h (1 Bft) S-SW 15,4 C 21,6 C 11,3 km/h (2 Bft)
22.10.2013 17:00 19,8 C 75 % 1007,2 hPa 0,0 l/m 0,7 km/h (0 Bft) S-SO 15,3 C 19,8 C 2,7 km/h (1 Bft)
22.10.2013 18:00 17,6 C 83 % 1007,0 hPa 0,0 l/m 0,7 km/h (0 Bft) SO 14,7 C 17,6 C 3,7 km/h (1 Bft)
22.10.2013 19:00 16,6 C 86 % 1006,6 hPa 0,0 l/m 1,0 km/h (0 Bft) S-SO 14,2 C 16,6 C 4,1 km/h (1 Bft)
22.10.2013 20:00 16,3 C 86 % 1006,3 hPa 0,0 l/m 1,0 km/h (0 Bft) S 13,9 C 16,3 C 3,6 km/h (1 Bft)
22.10.2013 21:00 15,4 C 88 % 1006,3 hPa 0,0 l/m 0,4 km/h (0 Bft) S-SO 13,4 C 15,4 C 1,7 km/h (1 Bft)
22.10.2013 22:00 15,3 C 86 % 1005,6 hPa 0,0 l/m 0,1 km/h (0 Bft) N 13,0 C 15,3 C 1,1 km/h (0 Bft)
22.10.2013 23:00 13,9 C 88 % 1004,9 hPa 0,0 l/m 0,0 km/h (0 Bft) N 11,9 C 13,9 C 0,2 km/h (0 Bft)
23.10.2013 00:00 14,7 C 84 % 1004,1 hPa 0,0 l/m 1,1 km/h (1 Bft) SO 12,0 C 14,7 C 4,7 km/h (1 Bft)
23.10.2013 01:00 15,2 C 80 % 1003,7 hPa 0,0 l/m 1,2 km/h (1 Bft) S-SO 11,7 C 15,2 C 3,5 km/h (1 Bft)
23.10.2013 02:00 14,3 C 83 % 1004,7 hPa 0,0 l/m 0,8 km/h (0 Bft) S 11,5 C 14,3 C 2,5 km/h (1 Bft)
23.10.2013 03:00 14,7 C 82 % 1004,4 hPa 0,0 l/m 0,8 km/h (0 Bft) S 11,6 C 14,7 C 3,2 km/h (1 Bft)
23.10.2013 04:00 15,3 C 82 % 1003,5 hPa 0,0 l/m 2,6 km/h (1 Bft) SO 12,2 C 15,3 C 6,1 km/h (2 Bft)
23.10.2013 05:00 15,8 C 81 % 1003,7 hPa 0,0 l/m 4,8 km/h (1 Bft) S-SW 12,6 C 15,7 C 10,0 km/h (2 Bft)
23.10.2013 06:00 16,3 C 82 % 1003,4 hPa 0,0 l/m 4,9 km/h (1 Bft) S 13,1 C 16,3 C 10,7 km/h (2 Bft)
23.10.2013 07:00 16,5 C 83 % 1003,7 hPa 0,0 l/m 6,1 km/h (2 Bft) SW 13,6 C 16,4 C 12,6 km/h (3 Bft)
23.10.2013 08:00 16,4 C 85 % 1003,9 hPa 0,0 l/m 3,6 km/h (1 Bft) S-SW 13,8 C 16,4 C 8,2 km/h (2 Bft)
23.10.2013 09:00 16,6 C 85 % 1004,2 hPa 0,0 l/m 2,7 km/h (1 Bft) S 14,0 C 16,6 C 6,0 km/h (2 Bft)
23.10.2013 10:00 16,9 C 84 % 1004,8 hPa 0,0 l/m 6,3 km/h (2 Bft) S-SO 14,2 C 16,6 C 13,6 km/h (3 Bft)
23.10.2013 11:00 17,0 C 83 % 1005,0 hPa 0,0 l/m 5,4 km/h (2 Bft) S 14,1 C 16,9 C 11,4 km/h (2 Bft)
23.10.2013 12:00 17,8 C 80 % 1004,7 hPa 0,0 l/m 7,5 km/h (2 Bft) S 14,3 C 17,3 C 16,9 km/h (3 Bft)
23.10.2013 13:00 19,0 C 76 % 1004,5 hPa 0,0 l/m 10,1 km/h (2 Bft) S 14,7 C 17,6 C 21,4 km/h (4 Bft)
23.10.2013 14:00 19,3 C 74 % 1004,3 hPa 0,0 l/m 10,0 km/h (2 Bft) SW 14,4 C 17,9 C 20,4 km/h (4 Bft)
23.10.2013 15:00 19,5 C 72 % 1004,3 hPa 0,0 l/m 8,1 km/h (2 Bft) S-SW 14,3 C 18,8 C 18,1 km/h (3 Bft)
23.10.2013 16:00 19,2 C 74 % 1004,8 hPa 0,0 l/m 7,9 km/h (2 Bft) SW 14,3 C 18,5 C 17,7 km/h (3 Bft)
23.10.2013 17:00 18,3 C 75 % 1005,2 hPa 0,0 l/m 8,1 km/h (2 Bft) S-SW 13,9 C 17,6 C 17,3 km/h (3 Bft)
23.10.2013 18:00 17,3 C 78 % 1005,8 hPa 0,0 l/m 6,7 km/h (2 Bft) S-SW 13,4 C 16,9 C 14,5 km/h (3 Bft)
23.10.2013 19:00 16,4 C 82 % 1006,5 hPa 0,0 l/m 5,7 km/h (2 Bft) S-SW 13,2 C 16,3 C 11,6 km/h (2 Bft)
23.10.2013 20:00 16,4 C 82 % 1007,2 hPa 0,0 l/m 8,4 km/h (2 Bft) S 13,4 C 15,3 C 17,2 km/h (3 Bft)
23.10.2013 21:00 16,1 C 83 % 1007,8 hPa 0,0 l/m 8,6 km/h (2 Bft) W-SW 13,2 C 15,0 C 17,3 km/h (3 Bft)
23.10.2013 22:00 15,4 C 86 % 1008,3 hPa 0,0 l/m 7,7 km/h (2 Bft) S-SW 13,0 C 14,7 C 15,7 km/h (3 Bft)
23.10.2013 23:00 15,4 C 85 % 1008,9 hPa 0,0 l/m 7,2 km/h (2 Bft) S 13,0 C 14,9 C 15,3 km/h (3 Bft)
24.10.2013 00:00 14,9 C 85 % 1009,6 hPa 0,0 l/m 4,9 km/h (1 Bft) SW 12,4 C 14,9 C 12,6 km/h (3 Bft)
24.10.2013 01:00 14,7 C 86 % 1010,3 hPa 0,0 l/m 2,6 km/h (1 Bft) S-SW 12,4 C 14,7 C 6,8 km/h (2 Bft)
24.10.2013 02:00 14,3 C 87 % 1010,6 hPa 0,0 l/m 3,4 km/h (1 Bft) S-SW 12,1 C 14,3 C 8,4 km/h (2 Bft)
24.10.2013 03:00 13,6 C 88 % 1011,1 hPa 0,0 l/m 3,4 km/h (1 Bft) SW 11,7 C 13,6 C 9,0 km/h (2 Bft)
24.10.2013 04:00 12,6 C 90 % 1011,5 hPa 0,0 l/m 1,6 km/h (1 Bft) S-SW 11,0 C 12,6 C 4,8 km/h (1 Bft)
24.10.2013 05:00 12,1 C 91 % 1012,1 hPa 0,0 l/m 1,1 km/h (1 Bft) SW 10,6 C 12,1 C 4,5 km/h (1 Bft)
24.10.2013 06:00 11,5 C 91 % 1012,8 hPa 0,0 l/m 1,5 km/h (1 Bft) SW 10,2 C 11,5 C 5,2 km/h (1 Bft)
24.10.2013 07:00 11,2 C 92 % 1013,4 hPa 0,0 l/m 0,8 km/h (0 Bft) SW 9,9 C 11,2 C 3,9 km/h (1 Bft)
24.10.2013 08:00 10,4 C 93 % 1014,4 hPa 0,0 l/m 0,2 km/h (0 Bft) N 9,2 C 10,4 C 1,5 km/h (1 Bft)
24.10.2013 09:00 11,3 C 92 % 1015,3 hPa 0,0 l/m 1,6 km/h (1 Bft) SW 10,1 C 11,3 C 5,6 km/h (2 Bft)
24.10.2013 10:00 12,9 C 88 % 1016,3 hPa 0,0 l/m 4,2 km/h (1 Bft) W 10,9 C 12,9 C 11,4 km/h (2 Bft)
24.10.2013 11:00 14,1 C 81 % 1017,0 hPa 0,0 l/m 5,7 km/h (2 Bft) W 10,9 C 14,0 C 14,5 km/h (3 Bft)
24.10.2013 12:00 15,2 C 74 % 1017,4 hPa 0,0 l/m 5,3 km/h (1 Bft) W 10,6 C 15,2 C 13,7 km/h (3 Bft)
24.10.2013 13:00 15,3 C 69 % 1017,5 hPa 0,0 l/m 7,4 km/h (2 Bft) SW 9,6 C 14,7 C 17,3 km/h (3 Bft)
24.10.2013 14:00 15,3 C 68 % 1017,6 hPa 0,0 l/m 6,5 km/h (2 Bft) S 9,4 C 15,0 C 15,4 km/h (3 Bft)
24.10.2013 15:00 15,4 C 68 % 1017,6 hPa 0,0 l/m 5,4 km/h (1 Bft) S-SW 9,6 C 15,4 C 12,2 km/h (2 Bft)
24.10.2013 16:00 14,9 C 69 % 1017,6 hPa 0,0 l/m 4,1 km/h (1 Bft) W-NW 9,2 C 14,9 C 9,7 km/h (2 Bft)
24.10.2013 17:00 13,8 C 73 % 1017,8 hPa 0,0 l/m 0,9 km/h (0 Bft) SW 9,1 C 13,8 C 3,2 km/h (1 Bft)
24.10.2013 18:00 11,3 C 83 % 1018,6 hPa 0,0 l/m 0,0 km/h (0 Bft) N 8,5 C 11,3 C 0,0 km/h (0 Bft)
24.10.2013 19:00 9,1 C 88 % 1019,3 hPa 0,0 l/m 0,0 km/h (0 Bft) N 7,2 C 9,1 C 0,0 km/h (0 Bft)
24.10.2013 20:00 7,1 C 92 % 1019,6 hPa 0,0 l/m 0,0 km/h (0 Bft) N 5,9 C 7,1 C 0,0 km/h (0 Bft)
24.10.2013 21:00 6,0 C 93 % 1019,9 hPa 0,0 l/m 0,0 km/h (0 Bft) N 5,0 C 6,0 C 0,0 km/h (0 Bft)
24.10.2013 22:00 4,9 C 94 % 1019,8 hPa 0,0 l/m 0,0 km/h (0 Bft) N 4,1 C 4,9 C 0,0 km/h (0 Bft)
24.10.2013 23:00 4,3 C 95 % 1019,9 hPa 0,0 l/m 0,0 km/h (0 Bft) N 3,5 C 4,3 C 0,0 km/h (0 Bft)
25.10.2013 00:00 4,1 C 95 % 1020,0 hPa 0,0 l/m 0,0 km/h (0 Bft) N 3,4 C 4,1 C 0,0 km/h (0 Bft)
25.10.2013 01:00 4,1 C 95 % 1019,9 hPa 0,0 l/m 0,0 km/h (0 Bft) N 3,4 C 4,1 C 0,0 km/h (0 Bft)
25.10.2013 02:00 4,1 C 95 % 1019,5 hPa 0,0 l/m 0,0 km/h (0 Bft) N 3,4 C 4,1 C 0,0 km/h (0 Bft)
25.10.2013 03:00 4,1 C 95 % 1019,3 hPa 0,0 l/m 0,0 km/h (0 Bft) N 3,4 C 4,1 C 0,0 km/h (0 Bft)
25.10.2013 04:00 3,3 C 95 % 1019,2 hPa 0,0 l/m 0,0 km/h (0 Bft) N 2,6 C 3,3 C 0,0 km/h (0 Bft)
25.10.2013 05:00 2,6 C 96 % 1019,0 hPa 0,0 l/m 0,0 km/h (0 Bft) N 2,1 C 2,6 C 0,0 km/h (0 Bft)
25.10.2013 06:00 6,7 C 97 % 1018,4 hPa 0,2 l/m 1,7 km/h (1 Bft) O-SO 6,3 C 6,7 C 6,0 km/h (2 Bft)
25.10.2013 07:00 8,4 C 91 % 1018,0 hPa 0,0 l/m 4,5 km/h (1 Bft) SO 7,0 C 8,4 C 11,9 km/h (2 Bft)
25.10.2013 08:00 8,9 C 88 % 1017,6 hPa 0,0 l/m 5,2 km/h (1 Bft) O-SO 7,0 C 8,9 C 13,4 km/h (3 Bft)
25.10.2013 09:00 9,5 C 88 % 1017,3 hPa 0,0 l/m 5,6 km/h (2 Bft) SO 7,6 C 9,4 C 14,4 km/h (3 Bft)
25.10.2013 10:00 10,1 C 90 % 1016,7 hPa 0,0 l/m 4,8 km/h (1 Bft) O 8,5 C 10,1 C 12,1 km/h (2 Bft)
25.10.2013 11:00 11,5 C 89 % 1016,3 hPa 0,0 l/m 4,7 km/h (1 Bft) SO 9,8 C 11,5 C 12,4 km/h (2 Bft)
25.10.2013 12:00 13,0 C 87 % 1015,4 hPa 0,0 l/m 4,1 km/h (1 Bft) S-SO 10,9 C 13,0 C 10,6 km/h (2 Bft)
25.10.2013 13:00 14,3 C 84 % 1014,6 hPa 0,0 l/m 3,5 km/h (1 Bft) SO 11,7 C 14,3 C 9,8 km/h (2 Bft)
25.10.2013 14:00 14,7 C 83 % 1014,0 hPa 0,0 l/m 3,3 km/h (1 Bft) S-SO 11,8 C 14,7 C 8,4 km/h (2 Bft)
25.10.2013 15:00 15,2 C 83 % 1013,5 hPa 0,0 l/m 3,4 km/h (1 Bft) S-SO 12,3 C 15,2 C 8,3 km/h (2 Bft)
25.10.2013 16:00 14,7 C 87 % 1013,1 hPa 0,2 l/m 2,4 km/h (1 Bft) S-SO 12,6 C 14,7 C 6,5 km/h (2 Bft)
25.10.2013 17:00 14,0 C 91 % 1012,6 hPa 0,0 l/m 2,0 km/h (1 Bft) S 12,5 C 14,0 C 5,3 km/h (1 Bft)
25.10.2013 18:00 13,6 C 92 % 1012,4 hPa 0,0 l/m 0,8 km/h (0 Bft) O-SO 12,4 C 13,6 C 3,2 km/h (1 Bft)
25.10.2013 19:00 13,3 C 93 % 1012,4 hPa 0,0 l/m 0,3 km/h (0 Bft) N 12,2 C 13,3 C 1,2 km/h (1 Bft)
25.10.2013 20:00 13,0 C 93 % 1012,1 hPa 0,0 l/m 0,7 km/h (0 Bft) S-SW 11,9 C 13,0 C 2,4 km/h (1 Bft)
25.10.2013 21:00 13,3 C 93 % 1012,0 hPa 0,0 l/m 2,1 km/h (1 Bft) S-SW 12,1 C 13,3 C 5,5 km/h (2 Bft)
25.10.2013 22:00 14,3 C 89 % 1012,0 hPa 0,0 l/m 3,2 km/h (1 Bft) SW 12,5 C 14,3 C 7,9 km/h (2 Bft)
25.10.2013 23:00 14,4 C 89 % 1012,2 hPa 0,2 l/m 1,5 km/h (1 Bft) S-SW 12,6 C 14,4 C 4,5 km/h (1 Bft)
26.10.2013 00:00 14,1 C 91 % 1012,2 hPa 0,2 l/m 0,4 km/h (0 Bft) S-SW 12,6 C 14,1 C 2,1 km/h (1 Bft)
26.10.2013 01:00 14,1 C 91 % 1012,5 hPa 1,6 l/m 1,6 km/h (1 Bft) S-SW 12,7 C 14,1 C 5,4 km/h (2 Bft)
26.10.2013 02:00 13,9 C 92 % 1012,0 hPa 0,4 l/m 0,2 km/h (0 Bft) N 12,6 C 13,9 C 0,5 km/h (0 Bft)
26.10.2013 03:00 13,8 C 92 % 1011,6 hPa 0,0 l/m 0,8 km/h (0 Bft) S 12,6 C 13,8 C 1,5 km/h (1 Bft)
26.10.2013 04:00 13,6 C 94 % 1011,1 hPa 0,0 l/m 6,4 km/h (2 Bft) S 12,7 C 13,6 C 6,9 km/h (2 Bft)
26.10.2013 05:00 13,6 C 94 % 1011,1 hPa 1,0 l/m 1,8 km/h (1 Bft) S-SW 12,7 C 13,6 C 4,7 km/h (1 Bft)
26.10.2013 06:00 13,4 C 94 % 1010,8 hPa 0,0 l/m 1,4 km/h (1 Bft) S 12,5 C 13,4 C 4,0 km/h (1 Bft)
26.10.2013 07:00 13,3 C 95 % 1011,2 hPa 0,0 l/m 1,8 km/h (1 Bft) S-SW 12,5 C 13,3 C 4,9 km/h (1 Bft)
26.10.2013 08:00 13,4 C 95 % 1011,4 hPa 0,0 l/m 1,3 km/h (1 Bft) S-SO 12,6 C 13,4 C 4,3 km/h (1 Bft)
26.10.2013 09:00 13,7 C 95 % 1011,7 hPa 0,0 l/m 2,4 km/h (1 Bft) S-SW 12,9 C 13,7 C 6,3 km/h (2 Bft)
26.10.2013 10:00 14,4 C 95 % 1011,8 hPa 0,2 l/m 2,4 km/h (1 Bft) S-SW 13,6 C 14,4 C 6,5 km/h (2 Bft)
26.10.2013 11:00 15,9 C 92 % 1011,5 hPa 0,0 l/m 6,4 km/h (2 Bft) S-SO 14,6 C 15,5 C 13,0 km/h (3 Bft)
26.10.2013 12:00 17,1 C 88 % 1011,4 hPa 0,0 l/m 5,6 km/h (2 Bft) S-SW 15,1 C 17,0 C 13,4 km/h (3 Bft)
26.10.2013 13:00 17,3 C 87 % 1011,1 hPa 0,0 l/m 4,6 km/h (1 Bft) SW 15,1 C 17,3 C 11,6 km/h (2 Bft)
26.10.2013 14:00 18,3 C 83 % 1010,8 hPa 0,0 l/m 6,5 km/h (2 Bft) SW 15,4 C 18,1 C 15,0 km/h (3 Bft)
26.10.2013 15:00 19,1 C 78 % 1010,6 hPa 0,0 l/m 5,9 km/h (2 Bft) SW 15,2 C 18,9 C 14,1 km/h (3 Bft)
26.10.2013 16:00 18,8 C 79 % 1010,2 hPa 0,0 l/m 5,6 km/h (2 Bft) S 15,1 C 18,7 C 12,5 km/h (2 Bft)
26.10.2013 17:00 18,0 C 82 % 1009,9 hPa 0,0 l/m 5,3 km/h (1 Bft) S-SW 14,9 C 17,9 C 10,3 km/h (2 Bft)
26.10.2013 18:00 17,0 C 86 % 1010,0 hPa 0,0 l/m 3,8 km/h (1 Bft) S-SW 14,6 C 17,0 C 7,3 km/h (2 Bft)
26.10.2013 19:00 16,6 C 87 % 1009,9 hPa 0,0 l/m 4,1 km/h (1 Bft) S-SW 14,4 C 16,6 C 9,5 km/h (2 Bft)
26.10.2013 20:00 16,5 C 87 % 1009,8 hPa 0,0 l/m 4,4 km/h (1 Bft) S-SW 14,3 C 16,5 C 9,1 km/h (2 Bft)
26.10.2013 21:00 16,4 C 87 % 1009,5 hPa 0,0 l/m 4,6 km/h (1 Bft) S 14,4 C 16,4 C 9,7 km/h (2 Bft)
26.10.2013 22:00 16,2 C 88 % 1009,4 hPa 0,0 l/m 4,5 km/h (1 Bft) S-SW 14,3 C 16,2 C 9,4 km/h (2 Bft)
26.10.2013 23:00 15,5 C 90 % 1009,3 hPa 0,0 l/m 2,5 km/h (1 Bft) S-SW 13,8 C 15,5 C 6,0 km/h (2 Bft)
27.10.2013 00:00 14,7 C 91 % 1009,1 hPa 0,0 l/m 1,4 km/h (1 Bft) S-SW 13,3 C 14,7 C 4,3 km/h (1 Bft)
27.10.2013 01:00 13,7 C 93 % 1008,5 hPa 0,0 l/m 0,0 km/h (0 Bft) N 12,5 C 13,7 C 0,0 km/h (0 Bft)
27.10.2013 02:00 12,9 C 94 % 1007,6 hPa 0,0 l/m 0,1 km/h (0 Bft) S-SO 12,0 C 12,9 C 0,3 km/h (0 Bft)
27.10.2013 03:00 14,4 C 95 % 1006,7 hPa 0,0 l/m 0,2 km/h (0 Bft) N 13,5 C 14,4 C 1,5 km/h (1 Bft)
27.10.2013 04:00 15,1 C 92 % 1005,8 hPa 0,0 l/m 2,1 km/h (1 Bft) S-SO 13,8 C 15,1 C 5,9 km/h (2 Bft)
27.10.2013 05:00 15,3 C 91 % 1005,3 hPa 0,4 l/m 0,9 km/h (0 Bft) S 13,8 C 15,3 C 2,5 km/h (1 Bft)
27.10.2013 06:00 15,3 C 91 % 1004,8 hPa 0,4 l/m 3,6 km/h (1 Bft) S 13,9 C 15,3 C 8,6 km/h (2 Bft)
27.10.2013 07:00 15,6 C 90 % 1004,4 hPa 0,0 l/m 5,9 km/h (2 Bft) S 14,0 C 15,5 C 11,7 km/h (2 Bft)
27.10.2013 08:00 15,8 C 88 % 1003,9 hPa 0,0 l/m 6,3 km/h (2 Bft) S 13,8 C 15,6 C 13,4 km/h (3 Bft)
27.10.2013 09:00 16,8 C 84 % 1003,0 hPa 0,0 l/m 10,1 km/h (2 Bft) S-SW 14,0 C 15,1 C 20,1 km/h (4 Bft)
27.10.2013 10:00 17,5 C 75 % 1002,3 hPa 0,0 l/m 12,7 km/h (3 Bft) S-SW 13,1 C 15,0 C 25,6 km/h (4 Bft)
27.10.2013 11:00 17,8 C 70 % 1001,6 hPa 0,0 l/m 11,5 km/h (2 Bft) SW 12,3 C 15,7 C 25,2 km/h (4 Bft)
27.10.2013 12:00 17,8 C 69 % 1000,7 hPa 0,0 l/m 11,7 km/h (2 Bft) SW 12,1 C 15,6 C 24,3 km/h (4 Bft)
27.10.2013 13:00 18,0 C 68 % 999,8 hPa 0,0 l/m 10,6 km/h (2 Bft) SW 12,1 C 16,3 C 21,8 km/h (4 Bft)
27.10.2013 14:00 17,4 C 70 % 999,5 hPa 0,0 l/m 9,6 km/h (2 Bft) SW 11,9 C 16,0 C 21,9 km/h (4 Bft)
27.10.2013 15:00 14,9 C 80 % 1000,0 hPa 0,6 l/m 8,7 km/h (2 Bft) S-SW 11,4 C 13,7 C 21,6 km/h (4 Bft)
27.10.2013 16:00 13,6 C 83 % 1000,5 hPa 0,0 l/m 7,5 km/h (2 Bft) SW 10,8 C 12,8 C 18,0 km/h (3 Bft)
27.10.2013 17:00 12,7 C 84 % 1001,1 hPa 0,0 l/m 6,4 km/h (2 Bft) S-SW 10,0 C 12,5 C 16,5 km/h (3 Bft)
27.10.2013 18:00 12,6 C 83 % 1001,6 hPa 0,0 l/m 8,6 km/h (2 Bft) SW 9,7 C 11,3 C 19,3 km/h (3 Bft)
27.10.2013 19:00 13,0 C 80 % 1002,0 hPa 0,0 l/m 8,9 km/h (2 Bft) S 9,7 C 11,5 C 22,1 km/h (4 Bft)
27.10.2013 20:00 13,0 C 79 % 1002,2 hPa 0,0 l/m 8,0 km/h (2 Bft) SW 9,3 C 12,0 C 18,4 km/h (3 Bft)
27.10.2013 21:00 13,0 C 77 % 1002,7 hPa 0,0 l/m 9,5 km/h (2 Bft) S-SW 9,0 C 11,1 C 21,8 km/h (4 Bft)
27.10.2013 22:00 13,0 C 79 % 1002,9 hPa 0,0 l/m 10,0 km/h (2 Bft) S-SW 9,4 C 10,9 C 21,4 km/h (4 Bft)
27.10.2013 23:00 13,1 C 80 % 1002,8 hPa 0,0 l/m 9,4 km/h (2 Bft) SW 9,7 C 11,3 C 21,6 km/h (4 Bft)
Min-Datum _ 25.10.13 22.10.13 27.10.13 - 21.10.13 - 25.10.13 25.10.13 21.10.13
_ Min-Zeit 04:35 16:25 14:50 - 18:05 - 04:35 04:35 18:05
Minimum _ 2,2 C 65 % 999,3 hPa - 0,0 km/h (0 Bft) - 1,6 C 2,2 C 0,0 km/h (0 Bft)
Max-Datum _ 22.10.13 25.10.13 24.10.13 26.10.13 27.10.13 - 22.10.13 22.10.13 27.10.13
_ Max-Zeit 16:05 06:10 23:25 01:45 10:15 - 15:40 16:05 15:05
Maximum _ 22,1 C 97 % 1020,1 hPa 1,6 l/m 14,7 km/h
S-SW (3 Bft)
- 16,7 C 22,1 C 35,4 km/h
SW (5 Bft)
Durchschnitt _ 14,1 C 86 % 1010,5 hPa #6,6 l/m 3,6 km/h (1 Bft) S-SW 11,7 C 13,9 C 8,6 km/h (2 Bft)